sensor_id;sensor_type;location;lat;lon;timestamp;pressure;altitude;pressure_sealevel;temperature;humidity
55610;BME280;41486;52.502;13.486;2024-01-25T00:02:25;100980.28;;;8.25;100.00
55610;BME280;41486;52.502;13.486;2024-01-25T00:04:53;100965.31;;;8.27;100.00
55610;BME280;41486;52.502;13.486;2024-01-25T00:07:21;100975.03;;;8.25;100.00
55610;BME280;41486;52.502;13.486;2024-01-25T00:09:52;100981.16;;;8.25;100.00
55610;BME280;41486;52.502;13.486;2024-01-25T00:12:24;100981.31;;;8.22;100.00
55610;BME280;41486;52.502;13.486;2024-01-25T00:14:53;100989.34;;;8.19;100.00
55610;BME280;41486;52.502;13.486;2024-01-25T00:17:21;100997.44;;;8.16;100.00
55610;BME280;41486;52.502;13.486;2024-01-25T00:19:49;100992.53;;;8.10;100.00
55610;BME280;41486;52.502;13.486;2024-01-25T00:22:18;100997.78;;;8.10;100.00
55610;BME280;41486;52.502;13.486;2024-01-25T00:24:46;101003.31;;;8.05;100.00
55610;BME280;41486;52.502;13.486;2024-01-25T00:27:14;101013.72;;;8.07;100.00
55610;BME280;41486;52.502;13.486;2024-01-25T00:29:43;101001.91;;;7.99;100.00
55610;BME280;41486;52.502;13.486;2024-01-25T00:32:11;101012.13;;;8.04;100.00
55610;BME280;41486;52.502;13.486;2024-01-25T00:34:39;101014.25;;;7.97;100.00
55610;BME280;41486;52.502;13.486;2024-01-25T00:37:08;101019.22;;;8.02;100.00
55610;BME280;41486;52.502;13.486;2024-01-25T00:39:37;101016.59;;;8.02;100.00
55610;BME280;41486;52.502;13.486;2024-01-25T00:42:06;101048.31;;;7.97;100.00
55610;BME280;41486;52.502;13.486;2024-01-25T00:44:35;101021.94;;;8.00;100.00
55610;BME280;41486;52.502;13.486;2024-01-25T00:47:05;101032.59;;;7.97;100.00
55610;BME280;41486;52.502;13.486;2024-01-25T00:49:35;101026.69;;;7.94;100.00
55610;BME280;41486;52.502;13.486;2024-01-25T00:52:04;101050.66;;;8.02;100.00
55610;BME280;41486;52.502;13.486;2024-01-25T00:54:33;101034.19;;;8.00;100.00
55610;BME280;41486;52.502;13.486;2024-01-25T00:57:01;101031.00;;;7.95;100.00
55610;BME280;41486;52.502;13.486;2024-01-25T00:59:30;101020.63;;;7.93;100.00
55610;BME280;41486;52.502;13.486;2024-01-25T01:01:58;101032.38;;;7.86;100.00
55610;BME280;41486;52.502;13.486;2024-01-25T01:04:37;101057.56;;;7.88;100.00
55610;BME280;41486;52.502;13.486;2024-01-25T01:07:14;101015.19;;;7.96;100.00
55610;BME280;41486;52.502;13.486;2024-01-25T01:09:43;101018.47;;;8.00;100.00
55610;BME280;41486;52.502;13.486;2024-01-25T01:12:13;101006.38;;;7.97;100.00
55610;BME280;41486;52.502;13.486;2024-01-25T01:14:41;101008.06;;;7.98;100.00
55610;BME280;41486;52.502;13.486;2024-01-25T01:17:09;101010.78;;;7.97;100.00
55610;BME280;41486;52.502;13.486;2024-01-25T01:19:39;101009.44;;;7.89;100.00
55610;BME280;41486;52.502;13.486;2024-01-25T01:22:07;101037.28;;;7.92;100.00
55610;BME280;41486;52.502;13.486;2024-01-25T01:24:35;101026.22;;;8.01;100.00
55610;BME280;41486;52.502;13.486;2024-01-25T01:27:03;101018.34;;;7.87;100.00
55610;BME280;41486;52.502;13.486;2024-01-25T01:29:31;101044.47;;;7.88;100.00
55610;BME280;41486;52.502;13.486;2024-01-25T01:31:59;101020.53;;;7.95;100.00
55610;BME280;41486;52.502;13.486;2024-01-25T01:34:27;101037.84;;;7.97;100.00
55610;BME280;41486;52.502;13.486;2024-01-25T01:36:57;101008.53;;;7.90;100.00
55610;BME280;41486;52.502;13.486;2024-01-25T01:39:25;101014.34;;;7.96;100.00
55610;BME280;41486;52.502;13.486;2024-01-25T01:41:53;101022.00;;;7.84;100.00
55610;BME280;41486;52.502;13.486;2024-01-25T01:44:21;101014.25;;;7.97;100.00
55610;BME280;41486;52.502;13.486;2024-01-25T01:46:49;101036.34;;;7.93;100.00
55610;BME280;41486;52.502;13.486;2024-01-25T01:49:18;101038.97;;;7.93;100.00
55610;BME280;41486;52.502;13.486;2024-01-25T01:51:46;101030.25;;;7.93;100.00
55610;BME280;41486;52.502;13.486;2024-01-25T01:54:17;101063.38;;;7.94;100.00
55610;BME280;41486;52.502;13.486;2024-01-25T01:56:45;101032.03;;;7.92;100.00
55610;BME280;41486;52.502;13.486;2024-01-25T01:59:15;101001.59;;;7.89;100.00
55610;BME280;41486;52.502;13.486;2024-01-25T02:01:44;101039.03;;;7.92;100.00
55610;BME280;41486;52.502;13.486;2024-01-25T02:04:12;101053.34;;;7.86;100.00
55610;BME280;41486;52.502;13.486;2024-01-25T02:06:41;101071.69;;;7.86;100.00
55610;BME280;41486;52.502;13.486;2024-01-25T02:09:10;101068.13;;;7.87;100.00
55610;BME280;41486;52.502;13.486;2024-01-25T02:11:40;101054.97;;;7.88;100.00
55610;BME280;41486;52.502;13.486;2024-01-25T02:14:11;101066.38;;;7.87;100.00
55610;BME280;41486;52.502;13.486;2024-01-25T02:16:40;101071.69;;;7.86;100.00
55610;BME280;41486;52.502;13.486;2024-01-25T02:19:13;101060.09;;;7.90;100.00
55610;BME280;41486;52.502;13.486;2024-01-25T02:21:41;101090.22;;;7.83;100.00
55610;BME280;41486;52.502;13.486;2024-01-25T02:24:11;101081.69;;;7.79;100.00
55610;BME280;41486;52.502;13.486;2024-01-25T02:26:39;101075.59;;;7.79;100.00
55610;BME280;41486;52.502;13.486;2024-01-25T02:29:07;101080.00;;;7.78;100.00
55610;BME280;41486;52.502;13.486;2024-01-25T02:31:36;101127.16;;;7.78;100.00
55610;BME280;41486;52.502;13.486;2024-01-25T02:34:04;101082.63;;;7.78;100.00
55610;BME280;41486;52.502;13.486;2024-01-25T02:36:32;101077.06;;;7.68;100.00
55610;BME280;41486;52.502;13.486;2024-01-25T02:39:00;101083.97;;;7.69;100.00
55610;BME280;41486;52.502;13.486;2024-01-25T02:41:30;101099.22;;;7.63;100.00
55610;BME280;41486;52.502;13.486;2024-01-25T02:44:00;101090.84;;;7.72;100.00
55610;BME280;41486;52.502;13.486;2024-01-25T02:46:31;101074.09;;;7.74;100.00
55610;BME280;41486;52.502;13.486;2024-01-25T02:48:58;101065.38;;;7.74;100.00
55610;BME280;41486;52.502;13.486;2024-01-25T02:51:27;101074.34;;;7.70;100.00
55610;BME280;41486;52.502;13.486;2024-01-25T02:53:55;101094.75;;;7.65;100.00
55610;BME280;41486;52.502;13.486;2024-01-25T02:56:23;101089.41;;;7.66;100.00
55610;BME280;41486;52.502;13.486;2024-01-25T02:58:53;101124.28;;;7.67;100.00
55610;BME280;41486;52.502;13.486;2024-01-25T03:01:21;101089.56;;;7.63;100.00
55610;BME280;41486;52.502;13.486;2024-01-25T03:03:49;101095.31;;;7.54;100.00
55610;BME280;41486;52.502;13.486;2024-01-25T03:06:17;101099.22;;;7.63;100.00
55610;BME280;41486;52.502;13.486;2024-01-25T03:08:45;101086.19;;;7.61;100.00
55610;BME280;41486;52.502;13.486;2024-01-25T03:11:13;101097.41;;;7.63;100.00
55610;BME280;41486;52.502;13.486;2024-01-25T03:13:41;101101.63;;;7.66;100.00
55610;BME280;41486;52.502;13.486;2024-01-25T03:16:11;101079.84;;;7.65;100.00
55610;BME280;41486;52.502;13.486;2024-01-25T03:18:39;101098.19;;;7.65;100.00
55610;BME280;41486;52.502;13.486;2024-01-25T03:21:07;101086.78;;;7.66;100.00
55610;BME280;41486;52.502;13.486;2024-01-25T03:23:35;101090.22;;;7.67;100.00
55610;BME280;41486;52.502;13.486;2024-01-25T03:26:03;101079.28;;;7.60;100.00
55610;BME280;41486;52.502;13.486;2024-01-25T03:28:31;101083.31;;;7.66;100.00
55610;BME280;41486;52.502;13.486;2024-01-25T03:31:02;101098.28;;;7.64;100.00
55610;BME280;41486;52.502;13.486;2024-01-25T03:33:31;101112.47;;;7.60;100.00
55610;BME280;41486;52.502;13.486;2024-01-25T03:36:01;101103.19;;;7.54;100.00
55610;BME280;41486;52.502;13.486;2024-01-25T03:38:30;101081.81;;;7.62;100.00
55610;BME280;41486;52.502;13.486;2024-01-25T03:40:58;101097.63;;;7.60;100.00
55610;BME280;41486;52.502;13.486;2024-01-25T03:43:26;101093.97;;;7.63;100.00
55610;BME280;41486;52.502;13.486;2024-01-25T03:46:08;101076.72;;;7.58;100.00
55610;BME280;41486;52.502;13.486;2024-01-25T03:48:38;101098.28;;;7.64;100.00
55610;BME280;41486;52.502;13.486;2024-01-25T03:51:06;101089.81;;;7.58;100.00
55610;BME280;41486;52.502;13.486;2024-01-25T03:53:34;101124.78;;;7.57;100.00
55610;BME280;41486;52.502;13.486;2024-01-25T03:56:02;101137.22;;;7.54;100.00
55610;BME280;41486;52.502;13.486;2024-01-25T03:58:30;101106.56;;;7.56;100.00
55610;BME280;41486;52.502;13.486;2024-01-25T04:00:58;101150.31;;;7.54;100.00
55610;BME280;41486;52.502;13.486;2024-01-25T04:03:26;101119.84;;;7.53;100.00
55610;BME280;41486;52.502;13.486;2024-01-25T04:05:56;101134.78;;;7.51;100.00
55610;BME280;41486;52.502;13.486;2024-01-25T04:08:24;101098.97;;;7.51;100.00
55610;BME280;41486;52.502;13.486;2024-01-25T04:10:52;101132.09;;;7.52;100.00
55610;BME280;41486;52.502;13.486;2024-01-25T04:13:20;101118.06;;;7.53;100.00
55610;BME280;41486;52.502;13.486;2024-01-25T04:15:48;101143.06;;;7.43;100.00
55610;BME280;41486;52.502;13.486;2024-01-25T04:18:16;101130.63;;;7.47;100.00
55610;BME280;41486;52.502;13.486;2024-01-25T04:20:44;101142.56;;;7.52;100.00
55610;BME280;41486;52.502;13.486;2024-01-25T04:23:14;101137.16;;;7.39;100.00
55610;BME280;41486;52.502;13.486;2024-01-25T04:25:43;101139.16;;;7.50;100.00
55610;BME280;41486;52.502;13.486;2024-01-25T04:28:11;101171.72;;;7.46;100.00
55610;BME280;41486;52.502;13.486;2024-01-25T04:30:39;101178.63;;;7.47;100.00
55610;BME280;41486;52.502;13.486;2024-01-25T04:33:07;101154.06;;;7.50;100.00
55610;BME280;41486;52.502;13.486;2024-01-25T04:35:35;101161.31;;;7.45;100.00
55610;BME280;41486;52.502;13.486;2024-01-25T04:38:03;101183.88;;;7.47;100.00
55610;BME280;41486;52.502;13.486;2024-01-25T04:40:33;101145.63;;;7.45;100.00
55610;BME280;41486;52.502;13.486;2024-01-25T04:43:01;101169.19;;;7.45;100.00
55610;BME280;41486;52.502;13.486;2024-01-25T04:45:29;101178.78;;;7.44;100.00
55610;BME280;41486;52.502;13.486;2024-01-25T04:47:57;101177.19;;;7.41;100.00
55610;BME280;41486;52.502;13.486;2024-01-25T04:50:25;101179.91;;;7.40;100.00
55610;BME280;41486;52.502;13.486;2024-01-25T04:52:53;101137.91;;;7.41;100.00
55610;BME280;41486;52.502;13.486;2024-01-25T04:55:24;101173.66;;;7.42;100.00
55610;BME280;41486;52.502;13.486;2024-01-25T04:57:54;101178.88;;;7.42;100.00
55610;BME280;41486;52.502;13.486;2024-01-25T05:00:22;101183.44;;;7.39;100.00
55610;BME280;41486;52.502;13.486;2024-01-25T05:02:51;101182.94;;;7.32;100.00
55610;BME280;41486;52.502;13.486;2024-01-25T05:05:19;101187.75;;;7.40;100.00
55610;BME280;41486;52.502;13.486;2024-01-25T05:07:47;101183.69;;;7.34;100.00
55610;BME280;41486;52.502;13.486;2024-01-25T05:10:15;101190.53;;;7.37;100.00
55610;BME280;41486;52.502;13.486;2024-01-25T05:12:43;101154.72;;;7.37;100.00
55610;BME280;41486;52.502;13.486;2024-01-25T05:15:13;101195.78;;;7.37;100.00
55610;BME280;41486;52.502;13.486;2024-01-25T05:17:41;101194.06;;;7.36;100.00
55610;BME280;41486;52.502;13.486;2024-01-25T05:20:09;101220.16;;;7.37;100.00
55610;BME280;41486;52.502;13.486;2024-01-25T05:22:39;101223.88;;;7.33;100.00
55610;BME280;41486;52.502;13.486;2024-01-25T05:25:08;101231.50;;;7.38;100.00
55610;BME280;41486;52.502;13.486;2024-01-25T05:27:36;101227.59;;;7.29;100.00
55610;BME280;41486;52.502;13.486;2024-01-25T05:30:06;101256.91;;;7.36;100.00
55610;BME280;41486;52.502;13.486;2024-01-25T05:32:35;101236.16;;;7.33;100.00
55610;BME280;41486;52.502;13.486;2024-01-25T05:35:04;101241.44;;;7.31;100.00
55610;BME280;41486;52.502;13.486;2024-01-25T05:37:34;101224.72;;;7.34;100.00
55610;BME280;41486;52.502;13.486;2024-01-25T05:40:02;101240.28;;;7.37;100.00
55610;BME280;41486;52.502;13.486;2024-01-25T05:42:30;101275.41;;;7.33;100.00
55610;BME280;41486;52.502;13.486;2024-01-25T05:44:58;101251.09;;;7.31;100.00
55610;BME280;41486;52.502;13.486;2024-01-25T05:47:26;101232.91;;;7.28;100.00
55610;BME280;41486;52.502;13.486;2024-01-25T05:49:56;101247.47;;;7.33;100.00
55610;BME280;41486;52.502;13.486;2024-01-25T05:52:26;101244.06;;;7.31;100.00
55610;BME280;41486;52.502;13.486;2024-01-25T05:54:54;101236.97;;;7.33;100.00
55610;BME280;41486;52.502;13.486;2024-01-25T05:57:22;101268.25;;;7.36;100.00
55610;BME280;41486;52.502;13.486;2024-01-25T05:59:53;101258.63;;;7.37;100.00
55610;BME280;41486;52.502;13.486;2024-01-25T06:02:21;101255.56;;;7.29;100.00
55610;BME280;41486;52.502;13.486;2024-01-25T06:04:49;101265.41;;;7.41;100.00
55610;BME280;41486;52.502;13.486;2024-01-25T06:07:19;101283.72;;;7.41;100.00
55610;BME280;41486;52.502;13.486;2024-01-25T06:09:47;101280.31;;;7.39;100.00
55610;BME280;41486;52.502;13.486;2024-01-25T06:12:15;101287.09;;;7.43;100.00
55610;BME280;41486;52.502;13.486;2024-01-25T06:14:46;101272.13;;;7.45;100.00
55610;BME280;41486;52.502;13.486;2024-01-25T06:17:15;101258.28;;;7.43;100.00
55610;BME280;41486;52.502;13.486;2024-01-25T06:19:43;101287.75;;;7.47;100.00
55610;BME280;41486;52.502;13.486;2024-01-25T06:22:11;101273.94;;;7.45;100.00
55610;BME280;41486;52.502;13.486;2024-01-25T06:24:41;101290.72;;;7.40;100.00
55610;BME280;41486;52.502;13.486;2024-01-25T06:27:09;101321.22;;;7.41;100.00
55610;BME280;41486;52.502;13.486;2024-01-25T06:29:37;101284.56;;;7.41;100.00
55610;BME280;41486;52.502;13.486;2024-01-25T06:32:06;101305.88;;;7.34;100.00
55610;BME280;41486;52.502;13.486;2024-01-25T06:34:39;101303.91;;;7.39;100.00
55610;BME280;41486;52.502;13.486;2024-01-25T06:37:08;101297.78;;;7.38;100.00
55610;BME280;41486;52.502;13.486;2024-01-25T06:39:40;101288.25;;;7.37;100.00
55610;BME280;41486;52.502;13.486;2024-01-25T06:42:08;101311.75;;;7.39;100.00
55610;BME280;41486;52.502;13.486;2024-01-25T06:44:36;101308.06;;;7.25;100.00
55610;BME280;41486;52.502;13.486;2024-01-25T06:47:04;101331.09;;;7.36;100.00
55610;BME280;41486;52.502;13.486;2024-01-25T06:49:32;101317.75;;;7.41;100.00
55610;BME280;41486;52.502;13.486;2024-01-25T06:52:02;101315.97;;;7.41;100.00
55610;BME280;41486;52.502;13.486;2024-01-25T06:54:30;101349.94;;;7.43;100.00
55610;BME280;41486;52.502;13.486;2024-01-25T06:57:00;101345.00;;;7.37;100.00
55610;BME280;41486;52.502;13.486;2024-01-25T06:59:28;101342.16;;;7.41;100.00
55610;BME280;41486;52.502;13.486;2024-01-25T07:01:56;101346.84;;;7.35;100.00
55610;BME280;41486;52.502;13.486;2024-01-25T07:04:25;101362.50;;;7.36;100.00
55610;BME280;41486;52.502;13.486;2024-01-25T07:06:53;101372.66;;;7.42;100.00
55610;BME280;41486;52.502;13.486;2024-01-25T07:09:24;101378.81;;;7.41;100.00
55610;BME280;41486;52.502;13.486;2024-01-25T07:11:53;101379.59;;;7.44;100.00
55610;BME280;41486;52.502;13.486;2024-01-25T07:14:22;101382.81;;;7.49;100.00
55610;BME280;41486;52.502;13.486;2024-01-25T07:16:50;101367.25;;;7.46;100.00
55610;BME280;41486;52.502;13.486;2024-01-25T07:19:18;101378.81;;;7.41;100.00
55610;BME280;41486;52.502;13.486;2024-01-25T07:21:46;101383.13;;;7.42;100.00
55610;BME280;41486;52.502;13.486;2024-01-25T07:24:15;101412.78;;;7.43;100.00
55610;BME280;41486;52.502;13.486;2024-01-25T07:26:43;101412.78;;;7.43;100.00
55610;BME280;41486;52.502;13.486;2024-01-25T07:29:11;101394.53;;;7.41;100.00
55610;BME280;41486;52.502;13.486;2024-01-25T07:31:40;101412.78;;;7.43;100.00
55610;BME280;41486;52.502;13.486;2024-01-25T07:34:08;101410.16;;;7.43;100.00
55610;BME280;41486;52.502;13.486;2024-01-25T07:36:36;101432.03;;;7.42;100.00
55610;BME280;41486;52.502;13.486;2024-01-25T07:39:04;101417.28;;;7.41;100.00
55610;BME280;41486;52.502;13.486;2024-01-25T07:41:33;101422.41;;;7.42;100.00
55610;BME280;41486;52.502;13.486;2024-01-25T07:44:02;101417.97;;;7.45;100.00
55610;BME280;41486;52.502;13.486;2024-01-25T07:46:30;101419.16;;;7.37;100.00
55610;BME280;41486;52.502;13.486;2024-01-25T07:48:59;101424.03;;;7.45;100.00
55610;BME280;41486;52.502;13.486;2024-01-25T07:51:28;101433.66;;;7.45;100.00
55610;BME280;41486;52.502;13.486;2024-01-25T07:53:56;101439.06;;;7.41;100.00
55610;BME280;41486;52.502;13.486;2024-01-25T07:56:24;101426.03;;;7.40;100.00
55610;BME280;41486;52.502;13.486;2024-01-25T07:58:52;101452.22;;;7.40;100.00
55610;BME280;41486;52.502;13.486;2024-01-25T08:01:20;101436.44;;;7.41;100.00
55610;BME280;41486;52.502;13.486;2024-01-25T08:03:48;101458.44;;;7.37;100.00
55610;BME280;41486;52.502;13.486;2024-01-25T08:06:23;101441.66;;;7.41;100.00
55610;BME280;41486;52.502;13.486;2024-01-25T08:08:51;101463.44;;;7.42;100.00
55610;BME280;41486;52.502;13.486;2024-01-25T08:11:20;101438.28;;;7.39;100.00
55610;BME280;41486;52.502;13.486;2024-01-25T08:13:48;101459.69;;;7.30;100.00
55610;BME280;41486;52.502;13.486;2024-01-25T08:16:17;101470.63;;;7.38;100.00
55610;BME280;41486;52.502;13.486;2024-01-25T08:18:46;101457.59;;;7.37;100.00
55610;BME280;41486;52.502;13.486;2024-01-25T08:21:15;101466.06;;;7.42;100.00
55610;BME280;41486;52.502;13.486;2024-01-25T08:23:45;101470.63;;;7.38;100.00
55610;BME280;41486;52.502;13.486;2024-01-25T08:26:14;101485.50;;;7.38;100.00
55610;BME280;41486;52.502;13.486;2024-01-25T08:28:42;101484.16;;;7.29;100.00
55610;BME280;41486;52.502;13.486;2024-01-25T08:31:11;101489.03;;;7.37;100.00
55610;BME280;41486;52.502;13.486;2024-01-25T08:33:40;101467.31;;;7.35;100.00
55610;BME280;41486;52.502;13.486;2024-01-25T08:36:19;101482.88;;;7.38;100.00
55610;BME280;41486;52.502;13.486;2024-01-25T08:38:48;101495.19;;;7.36;100.00
55610;BME280;41486;52.502;13.486;2024-01-25T08:41:16;101499.13;;;7.45;100.00
55610;BME280;41486;52.502;13.486;2024-01-25T08:43:44;101499.41;;;7.38;100.00
55610;BME280;41486;52.502;13.486;2024-01-25T08:46:13;101493.66;;;7.32;100.00
55610;BME280;41486;52.502;13.486;2024-01-25T08:48:41;101506.22;;;7.60;100.00
55610;BME280;41486;52.502;13.486;2024-01-25T08:51:10;101492.13;;;7.45;100.00
55610;BME280;41486;52.502;13.486;2024-01-25T08:53:38;101520.00;;;7.46;100.00
55610;BME280;41486;52.502;13.486;2024-01-25T08:56:07;101506.13;;;7.44;100.00
55610;BME280;41486;52.502;13.486;2024-01-25T08:58:36;101493.22;;;7.41;100.00
55610;BME280;41486;52.502;13.486;2024-01-25T09:01:04;101525.31;;;7.45;100.00
55610;BME280;41486;52.502;13.486;2024-01-25T09:03:33;101516.53;;;7.46;100.00
55610;BME280;41486;52.502;13.486;2024-01-25T09:06:01;101522.22;;;7.36;100.00
55610;BME280;41486;52.502;13.486;2024-01-25T09:08:33;101526.53;;;7.37;100.00
55610;BME280;41486;52.502;13.486;2024-01-25T09:11:03;101526.38;;;7.40;100.00
55610;BME280;41486;52.502;13.486;2024-01-25T09:13:33;101527.00;;;7.46;100.00
55610;BME280;41486;52.502;13.486;2024-01-25T09:16:12;101544.63;;;7.42;100.00
55610;BME280;41486;52.502;13.486;2024-01-25T09:18:40;101555.97;;;7.42;100.00
55610;BME280;41486;52.502;13.486;2024-01-25T09:21:09;101546.03;;;7.32;100.00
55610;BME280;41486;52.502;13.486;2024-01-25T09:23:37;101544.81;;;7.39;100.00
55610;BME280;41486;52.502;13.486;2024-01-25T09:26:05;101540.78;;;7.32;100.00
55610;BME280;41486;52.502;13.486;2024-01-25T09:28:35;101555.50;;;7.34;100.00
55610;BME280;41486;52.502;13.486;2024-01-25T09:31:03;101537.88;;;7.38;100.00
55610;BME280;41486;52.502;13.486;2024-01-25T09:33:33;101559.50;;;7.41;100.00
55610;BME280;41486;52.502;13.486;2024-01-25T09:36:02;101577.75;;;7.43;100.00
55610;BME280;41486;52.502;13.486;2024-01-25T09:38:32;101568.41;;;7.37;100.00
55610;BME280;41486;52.502;13.486;2024-01-25T09:41:01;101562.47;;;7.34;100.00
55610;BME280;41486;52.502;13.486;2024-01-25T09:43:30;101588.63;;;7.35;100.00
55610;BME280;41486;52.502;13.486;2024-01-25T09:46:01;101570.91;;;7.40;100.00
55610;BME280;41486;52.502;13.486;2024-01-25T09:48:30;101572.03;;;7.35;100.00
55610;BME280;41486;52.502;13.486;2024-01-25T09:50:59;101575.22;;;7.41;100.00
55610;BME280;41486;52.502;13.486;2024-01-25T09:53:29;101593.63;;;7.40;100.00
55610;BME280;41486;52.502;13.486;2024-01-25T09:56:05;101585.00;;;7.38;100.00
55610;BME280;41486;52.502;13.486;2024-01-25T09:58:37;101585.09;;;7.36;100.00
55610;BME280;41486;52.502;13.486;2024-01-25T10:01:09;101585.69;;;7.41;100.00
55610;BME280;41486;52.502;13.486;2024-01-25T10:03:42;101600.78;;;7.36;100.00
55610;BME280;41486;52.502;13.486;2024-01-25T10:06:11;101596.19;;;7.41;100.00
55610;BME280;41486;52.502;13.486;2024-01-25T10:08:40;101593.63;;;7.40;100.00
55610;BME280;41486;52.502;13.486;2024-01-25T10:11:09;101593.78;;;7.37;100.00
55610;BME280;41486;52.502;13.486;2024-01-25T10:13:42;101601.50;;;7.40;100.00
55610;BME280;41486;52.502;13.486;2024-01-25T10:16:13;101599.63;;;7.42;100.00
55610;BME280;41486;52.502;13.486;2024-01-25T10:18:43;101608.78;;;7.33;100.00
55610;BME280;41486;52.502;13.486;2024-01-25T10:21:16;101598.16;;;7.36;100.00
55610;BME280;41486;52.502;13.486;2024-01-25T10:23:49;101593.63;;;7.40;100.00
55610;BME280;41486;52.502;13.486;2024-01-25T10:26:18;101600.63;;;7.39;100.00
55610;BME280;41486;52.502;13.486;2024-01-25T10:28:51;101612.88;;;7.39;100.00
55610;BME280;41486;52.502;13.486;2024-01-25T10:31:28;101597.97;;;7.41;100.00
55610;BME280;41486;52.502;13.486;2024-01-25T10:33:57;101607.66;;;7.39;100.00
55610;BME280;41486;52.502;13.486;2024-01-25T10:36:27;101622.38;;;7.41;100.00
55610;BME280;41486;52.502;13.486;2024-01-25T10:38:55;101617.13;;;7.41;100.00
55610;BME280;41486;52.502;13.486;2024-01-25T10:41:24;101609.06;;;7.46;100.00
55610;BME280;41486;52.502;13.486;2024-01-25T10:43:55;101611.38;;;7.52;100.00
55610;BME280;41486;52.502;13.486;2024-01-25T10:46:24;101621.00;;;7.52;100.00
55610;BME280;41486;52.502;13.486;2024-01-25T10:48:53;101619.94;;;7.56;100.00
55610;BME280;41486;52.502;13.486;2024-01-25T10:51:26;101623.53;;;7.53;100.00
55610;BME280;41486;52.502;13.486;2024-01-25T10:53:54;101623.75;;;7.49;100.00
55610;BME280;41486;52.502;13.486;2024-01-25T10:56:24;101629.63;;;7.54;100.00
55610;BME280;41486;52.502;13.486;2024-01-25T10:58:52;101619.13;;;7.54;100.00
55610;BME280;41486;52.502;13.486;2024-01-25T11:01:20;101627.56;;;7.61;100.00
55610;BME280;41486;52.502;13.486;2024-01-25T11:03:49;101616.94;;;7.64;100.00
55610;BME280;41486;52.502;13.486;2024-01-25T11:06:20;101634.59;;;7.60;100.00
55610;BME280;41486;52.502;13.486;2024-01-25T11:08:49;101637.03;;;7.63;100.00
55610;BME280;41486;52.502;13.486;2024-01-25T11:11:18;101646.06;;;7.75;100.00
55610;BME280;41486;52.502;13.486;2024-01-25T11:13:50;101634.84;;;7.73;100.00
55610;BME280;41486;52.502;13.486;2024-01-25T11:16:28;101630.34;;;7.75;100.00
55610;BME280;41486;52.502;13.486;2024-01-25T11:18:59;101640.63;;;7.80;100.00
55610;BME280;41486;52.502;13.486;2024-01-25T11:21:41;101631.22;;;7.76;100.00
55610;BME280;41486;52.502;13.486;2024-01-25T11:24:13;101631.69;;;7.84;100.00
55610;BME280;41486;52.502;13.486;2024-01-25T11:26:42;101628.59;;;7.76;100.00
55610;BME280;41486;52.502;13.486;2024-01-25T11:29:13;101634.97;;;7.70;100.00
55610;BME280;41486;52.502;13.486;2024-01-25T11:31:46;101635.81;;;7.70;100.00
55610;BME280;41486;52.502;13.486;2024-01-25T11:34:17;101642.53;;;7.76;100.00
55610;BME280;41486;52.502;13.486;2024-01-25T11:36:49;101649.47;;;7.77;100.00
55610;BME280;41486;52.502;13.486;2024-01-25T11:39:18;101628.34;;;7.63;100.00
55610;BME280;41486;52.502;13.486;2024-01-25T11:41:46;101656.13;;;7.84;100.00
55610;BME280;41486;52.502;13.486;2024-01-25T11:44:15;101658.03;;;7.81;100.00
55610;BME280;41486;52.502;13.486;2024-01-25T11:46:45;101657.47;;;7.93;100.00
55610;BME280;41486;52.502;13.486;2024-01-25T11:49:13;101649.50;;;7.95;100.00
55610;BME280;41486;52.502;13.486;2024-01-25T11:51:42;101654.19;;;7.88;100.00
55610;BME280;41486;52.502;13.486;2024-01-25T11:54:11;101649.75;;;7.90;100.00
55610;BME280;41486;52.502;13.486;2024-01-25T11:56:42;101666.75;;;7.81;100.00
55610;BME280;41486;52.502;13.486;2024-01-25T11:59:11;101666.28;;;7.90;100.00
55610;BME280;41486;52.502;13.486;2024-01-25T12:01:40;101669.63;;;7.94;100.00
55610;BME280;41486;52.502;13.486;2024-01-25T12:04:09;101658.44;;;7.90;100.00
55610;BME280;41486;52.502;13.486;2024-01-25T12:06:37;101688.28;;;7.88;100.00
55610;BME280;41486;52.502;13.486;2024-01-25T12:09:07;101665.03;;;7.99;100.00
55610;BME280;41486;52.502;13.486;2024-01-25T12:11:38;101681.28;;;8.06;100.00
55610;BME280;41486;52.502;13.486;2024-01-25T12:14:10;101693.47;;;8.07;100.00
55610;BME280;41486;52.502;13.486;2024-01-25T12:16:38;101672.25;;;8.12;100.00
55610;BME280;41486;52.502;13.486;2024-01-25T12:19:07;101667.25;;;8.07;100.00
55610;BME280;41486;52.502;13.486;2024-01-25T12:21:36;101647.66;;;8.14;100.00
55610;BME280;41486;52.502;13.486;2024-01-25T12:24:06;101649.38;;;8.33;100.00
55610;BME280;41486;52.502;13.486;2024-01-25T12:26:41;101662.41;;;8.52;100.00
55610;BME280;41486;52.502;13.486;2024-01-25T12:29:09;101637.41;;;8.45;99.75
55610;BME280;41486;52.502;13.486;2024-01-25T12:31:37;101668.03;;;8.27;100.00
55610;BME280;41486;52.502;13.486;2024-01-25T12:34:13;101654.06;;;8.26;100.00
55610;BME280;41486;52.502;13.486;2024-01-25T12:36:46;101662.63;;;8.12;100.00
55610;BME280;41486;52.502;13.486;2024-01-25T12:39:14;101662.00;;;8.07;100.00
55610;BME280;41486;52.502;13.486;2024-01-25T12:41:47;101634.63;;;7.95;100.00
55610;BME280;41486;52.502;13.486;2024-01-25T12:44:20;101666.53;;;8.74;98.27
55610;BME280;41486;52.502;13.486;2024-01-25T12:46:49;101643.47;;;8.45;98.70
55610;BME280;41486;52.502;13.486;2024-01-25T12:49:17;101655.47;;;8.16;100.00
55610;BME280;41486;52.502;13.486;2024-01-25T12:51:48;101668.56;;;8.16;100.00